Time;durP1;ratioP1;P1;durP2;ratioP2;P2;SDS_P1;SDS_P2;PMS_P1;PMS_P2;Temp;Humidity;BMP_temperature;BMP_pressure;BME280_temperature;BME280_humidity;BME280_pressure;Samples;Min_cycle;Max_cycle;Signal;HPM_P1;HPM_P2
2022/07/24 00:01:53;;;;;;;7.18;3.90;;;;;;;20.76;59.69;100043.84;4986115;28;20045;-49
2022/07/24 00:04:20;;;;;;;6.70;3.45;;;;;;;20.72;59.33;100037.88;4985318;28;20049;-49
2022/07/24 00:06:47;;;;;;;5.78;3.08;;;;;;;20.68;59.71;100031.03;4982091;28;20509;-49
2022/07/24 00:09:13;;;;;;;6.43;3.75;;;;;;;20.69;59.53;100040.63;4986307;28;20498;-45
2022/07/24 00:11:40;;;;;;;4.85;2.85;;;;;;;20.67;59.75;100029.34;4984851;28;20109;-47
2022/07/24 00:14:07;;;;;;;4.63;3.17;;;;;;;20.65;60.09;100031.19;4982537;28;20042;-46
2022/07/24 00:16:35;;;;;;;5.47;3.53;;;;;;;20.63;59.69;100033.00;4985782;28;20064;-50
2022/07/24 00:19:03;;;;;;;6.30;3.97;;;;;;;20.62;60.24;100031.31;4980963;28;20051;-49
2022/07/24 00:21:30;;;;;;;6.25;3.63;;;;;;;20.54;60.45;100027.25;4981563;28;20054;-47
2022/07/24 00:23:57;;;;;;;5.50;3.30;;;;;;;20.58;59.95;100019.22;4980131;28;20078;-48
2022/07/24 00:26:24;;;;;;;5.97;4.38;;;;;;;20.55;60.46;100010.56;4981011;28;20053;-47
2022/07/24 00:28:50;;;;;;;6.38;3.15;;;;;;;20.52;60.58;100010.69;4982814;28;20066;-50
2022/07/24 00:31:17;;;;;;;6.45;3.85;;;;;;;20.51;60.64;100024.78;4980990;28;20045;-47
2022/07/24 00:33:44;;;;;;;9.27;3.80;;;;;;;20.49;60.70;100021.34;4992987;28;20062;-46
2022/07/24 00:36:11;;;;;;;5.70;3.80;;;;;;;20.48;60.59;100018.78;4980579;28;20544;-49
2022/07/24 00:38:38;;;;;;;8.30;3.90;;;;;;;20.48;60.86;100019.66;4978904;28;20045;-49
2022/07/24 00:41:05;;;;;;;5.30;3.88;;;;;;;20.50;60.88;100014.31;4981904;28;20066;-47
2022/07/24 00:43:33;;;;;;;8.25;4.45;;;;;;;20.46;60.68;100010.94;4979927;28;20072;-48
2022/07/24 00:46:00;;;;;;;7.22;3.72;;;;;;;20.44;60.68;100011.94;4976617;28;20503;-46
2022/07/24 00:48:27;;;;;;;6.85;3.72;;;;;;;20.44;60.84;100011.94;4978177;28;20051;-44
2022/07/24 00:50:54;;;;;;;7.95;3.78;;;;;;;20.41;60.62;100002.44;4979952;28;20046;-45
2022/07/24 00:53:20;;;;;;;6.70;3.90;;;;;;;20.40;60.36;100004.19;4985256;28;20054;-44
2022/07/24 00:55:47;;;;;;;9.13;3.80;;;;;;;20.39;60.85;100004.25;4981934;28;20042;-45
2022/07/24 00:58:14;;;;;;;9.60;3.35;;;;;;;20.34;60.98;99999.22;4983264;28;20058;-46
2022/07/24 01:00:41;;;;;;;6.72;4.13;;;;;;;20.33;61.02;100004.53;4983076;28;20051;-46
2022/07/24 01:03:07;;;;;;;6.00;3.03;;;;;;;20.29;60.89;100002.03;4979560;28;20058;-47
2022/07/24 01:05:34;;;;;;;5.25;2.30;;;;;;;20.29;61.03;99998.56;4980894;28;20614;-46
2022/07/24 01:08:01;;;;;;;7.80;2.47;;;;;;;20.26;61.71;100009.19;4981892;28;20521;-46
2022/07/24 01:10:29;;;;;;;6.00;4.10;;;;;;;20.22;61.22;100008.50;4980884;28;20064;-48
2022/07/24 01:12:56;;;;;;;6.10;4.05;;;;;;;20.22;60.93;100013.75;4984803;28;20541;-44
2022/07/24 01:15:22;;;;;;;6.20;2.40;;;;;;;20.19;61.14;100000.72;4982801;28;20470;-49
2022/07/24 01:17:49;;;;;;;6.75;3.42;;;;;;;20.17;61.39;99999.97;4981817;28;20041;-44
2022/07/24 01:20:15;;;;;;;8.90;4.50;;;;;;;20.15;61.51;100001.78;4977022;28;20050;-46
2022/07/24 01:22:42;;;;;;;6.70;3.40;;;;;;;20.16;61.36;99998.22;4982158;28;20100;-48
2022/07/24 01:25:10;;;;;;;6.82;3.92;;;;;;;20.16;61.44;99999.09;4979148;28;20037;-47
2022/07/24 01:27:37;;;;;;;8.77;3.78;;;;;;;20.16;61.42;100001.72;4981584;28;20046;-46
2022/07/24 01:30:05;;;;;;;10.00;4.03;;;;;;;20.17;61.54;99994.72;4977128;28;20047;-45
2022/07/24 01:32:32;;;;;;;6.43;3.83;;;;;;;20.16;61.67;99987.72;4980680;28;20058;-45
2022/07/24 01:34:58;;;;;;;10.27;5.00;;;;;;;20.16;61.58;99999.09;4983032;28;20046;-47
2022/07/24 01:37:25;;;;;;;9.32;4.13;;;;;;;20.15;61.42;99991.28;4978900;28;20062;-45
2022/07/24 01:39:52;;;;;;;8.38;4.03;;;;;;;20.15;61.46;100001.78;4983055;28;20049;-48
2022/07/24 01:42:20;;;;;;;8.00;4.25;;;;;;;20.14;61.93;99989.56;4982824;28;20490;-46
2022/07/24 01:44:47;;;;;;;6.05;2.40;;;;;;;20.17;61.57;99984.19;4981174;28;21129;-45
2022/07/24 01:47:14;;;;;;;7.93;4.00;;;;;;;20.16;61.63;99983.31;4982887;28;20089;-44
2022/07/24 01:49:40;;;;;;;8.18;4.28;;;;;;;20.16;61.72;99971.94;4979389;28;20109;-47
2022/07/24 01:52:08;;;;;;;7.30;3.28;;;;;;;20.16;61.73;99961.41;4980190;28;20054;-47
2022/07/24 01:54:35;;;;;;;8.35;3.72;;;;;;;20.13;61.83;99972.09;4974808;28;20530;-45
2022/07/24 01:57:02;;;;;;;9.93;3.63;;;;;;;20.12;61.82;99973.88;4982694;28;20061;-44
2022/07/24 01:59:29;;;;;;;5.68;3.38;;;;;;;20.13;62.07;99977.34;4985744;28;20538;-48
2022/07/24 02:01:56;;;;;;;6.50;4.45;;;;;;;20.13;61.89;99977.34;4991001;28;20109;-47
2022/07/24 02:04:22;;;;;;;6.78;4.43;;;;;;;20.09;61.83;99966.09;4992512;28;20104;-46
2022/07/24 02:06:49;;;;;;;6.88;3.95;;;;;;;20.11;62.27;99963.41;4992142;28;20105;-47
2022/07/24 02:09:15;;;;;;;8.90;2.80;;;;;;;20.07;61.99;99970.59;4983193;28;21887;-47
2022/07/24 02:11:42;;;;;;;12.35;4.15;;;;;;;20.08;62.01;99953.88;4990503;28;20698;-49
2022/07/24 02:14:09;;;;;;;7.22;4.05;;;;;;;20.08;61.70;99950.41;4992836;28;20121;-47
2022/07/24 02:16:35;;;;;;;7.22;4.28;;;;;;;20.06;62.43;99952.25;4987971;28;20378;-46
2022/07/24 02:19:02;;;;;;;10.30;3.75;;;;;;;20.03;62.38;99956.72;4988979;28;20690;-44
2022/07/24 02:21:30;;;;;;;6.57;3.63;;;;;;;20.01;62.14;99963.81;4985209;28;20041;-46
2022/07/24 02:23:56;;;;;;;8.70;4.10;;;;;;;19.99;62.60;99965.66;4989097;28;20050;-45
2022/07/24 02:26:23;;;;;;;10.23;4.85;;;;;;;19.97;62.47;99962.22;4986441;28;20092;-44
2022/07/24 02:28:50;;;;;;;9.63;4.55;;;;;;;19.97;62.65;99951.72;4985865;28;20088;-47
2022/07/24 02:31:17;;;;;;;5.10;3.72;;;;;;;19.97;62.73;99956.09;4998342;28;20050;-48
2022/07/24 02:33:43;;;;;;;7.10;4.18;;;;;;;19.95;62.76;99957.94;4994115;28;20115;-49
2022/07/24 02:36:10;;;;;;;6.93;4.35;;;;;;;19.93;62.55;99958.03;4985044;28;20191;-45
2022/07/24 02:38:37;;;;;;;8.23;4.57;;;;;;;19.93;63.00;99960.66;4993048;28;21453;-49
2022/07/24 02:41:03;;;;;;;7.00;3.70;;;;;;;19.93;62.89;99960.66;4982134;28;20057;-52
2022/07/24 02:43:30;;;;;;;6.82;3.78;;;;;;;19.94;62.85;99946.59;4979312;28;20058;-43
2022/07/24 02:45:57;;;;;;;5.88;4.00;;;;;;;19.95;62.92;99958.78;4986025;28;20057;-45
2022/07/24 02:48:24;;;;;;;5.60;3.72;;;;;;;19.95;62.64;99947.41;4981417;28;20076;-47
2022/07/24 02:50:51;;;;;;;9.07;4.32;;;;;;;19.94;63.06;99940.47;4987502;28;20054;-45
2022/07/24 02:53:18;;;;;;;8.57;3.67;;;;;;;19.90;63.54;99943.22;4988325;28;20089;-47
2022/07/24 02:55:45;;;;;;;6.00;3.22;;;;;;;19.90;63.24;99939.75;4985080;28;20046;-46
2022/07/24 02:58:11;;;;;;;7.25;3.67;;;;;;;19.88;63.43;99925.81;4983457;28;20042;-44
2022/07/24 03:00:38;;;;;;;5.03;3.58;;;;;;;19.89;63.32;99943.28;4991140;28;20046;-46
2022/07/24 03:03:05;;;;;;;6.85;3.17;;;;;;;19.89;63.31;99938.88;4988444;28;20077;-46
2022/07/24 03:05:32;;;;;;;7.63;3.65;;;;;;;19.88;63.34;99952.09;4982932;28;20058;-45
2022/07/24 03:07:58;;;;;;;9.50;5.07;;;;;;;19.88;63.70;99947.69;4988167;28;20120;-44
2022/07/24 03:10:25;;;;;;;6.20;3.38;;;;;;;19.87;63.86;99953.03;4989391;28;20042;-44
2022/07/24 03:12:52;;;;;;;7.18;3.80;;;;;;;19.86;63.26;99954.78;4991442;28;20046;-46
2022/07/24 03:15:18;;;;;;;6.43;3.53;;;;;;;19.85;63.96;99952.22;4979869;28;20043;-48
2022/07/24 03:17:51;;;;;;;7.28;3.67;;;;;;;19.85;63.91;99952.22;4992005;28;20504;-44
2022/07/24 03:20:19;;;;;;;6.65;3.45;;;;;;;19.87;63.65;99955.66;4983035;28;20046;-45
2022/07/24 03:22:46;;;;;;;6.57;3.42;;;;;;;19.87;63.94;99961.78;4983491;28;20054;-44
2022/07/24 03:25:13;;;;;;;6.38;3.35;;;;;;;19.88;64.11;99952.09;4992711;28;20054;-46
2022/07/24 03:27:41;;;;;;;6.25;3.88;;;;;;;19.90;63.91;99950.25;4990798;28;20119;-47
2022/07/24 03:30:08;;;;;;;5.75;3.65;;;;;;;19.89;63.77;99953.78;4979502;28;20046;-47
2022/07/24 03:32:35;;;;;;;7.15;3.45;;;;;;;19.90;63.69;99939.75;4983568;28;20046;-43
2022/07/24 03:35:03;;;;;;;5.68;3.15;;;;;;;19.89;64.25;99935.41;4983376;28;20077;-45
2022/07/24 03:37:29;;;;;;;5.88;3.55;;;;;;;19.90;64.26;99935.34;4990985;28;20053;-44
2022/07/24 03:39:56;;;;;;;4.43;2.00;;;;;;;19.89;64.29;99938.03;4987572;28;20605;-44
2022/07/24 03:42:23;;;;;;;7.03;3.00;;;;;;;19.88;64.11;99936.31;4979758;28;20062;-50
2022/07/24 03:44:50;;;;;;;11.30;3.72;;;;;;;19.88;64.42;99936.31;4977395;28;21073;-45
2022/07/24 03:47:16;;;;;;;4.85;3.40;;;;;;;19.89;64.51;99927.50;4984925;28;20042;-49
2022/07/24 03:49:43;;;;;;;5.60;3.80;;;;;;;19.89;64.77;99917.88;4985033;28;20114;-45
2022/07/24 03:52:09;;;;;;;5.35;3.42;;;;;;;19.89;64.90;99917.88;4987322;28;20046;-45
2022/07/24 03:54:37;;;;;;;4.50;3.25;;;;;;;19.90;64.63;99923.97;4982098;28;20054;-45
2022/07/24 03:57:04;;;;;;;3.95;2.03;;;;;;;19.90;64.80;99919.56;4984282;28;21874;-47
2022/07/24 03:59:30;;;;;;;6.85;2.58;;;;;;;19.91;65.03;99937.06;4983270;28;20450;-46
2022/07/24 04:01:57;;;;;;;4.20;2.97;;;;;;;19.92;64.77;99927.38;4983688;28;20042;-44
2022/07/24 04:04:24;;;;;;;5.30;3.75;;;;;;;19.91;64.94;99920.44;4990755;28;20049;-46
2022/07/24 04:06:50;;;;;;;4.07;3.35;;;;;;;19.93;64.54;99918.59;4987253;28;20104;-44
2022/07/24 04:09:17;;;;;;;7.32;3.45;;;;;;;19.95;64.88;99927.25;4985263;28;20677;-47
2022/07/24 04:11:57;;;;;;;4.22;2.75;;;;;;;19.91;64.70;99917.81;4982318;28;20366;-49
2022/07/24 04:14:24;;;;;;;3.65;2.65;;;;;;;19.91;64.86;99915.16;4989665;28;20537;-46
2022/07/24 04:16:51;;;;;;;7.75;2.80;;;;;;;19.89;64.94;99909.13;4987462;28;20042;-45
2022/07/24 04:19:18;;;;;;;5.82;2.63;;;;;;;19.87;65.12;99909.22;4975478;28;20515;-49
2022/07/24 04:21:44;;;;;;;4.95;3.05;;;;;;;19.88;65.15;99933.69;4989624;28;20050;-48
2022/07/24 04:24:11;;;;;;;4.82;2.95;;;;;;;19.87;65.44;99929.38;4990814;28;20089;-46
2022/07/24 04:26:38;;;;;;;4.57;2.97;;;;;;;19.84;65.59;99913.72;4988961;28;20553;-47
2022/07/24 04:29:05;;;;;;;6.72;2.75;;;;;;;19.84;65.49;99908.47;4986008;28;20061;-46
2022/07/24 04:31:33;;;;;;;4.82;3.53;;;;;;;19.86;65.59;99920.63;4983924;28;20052;-47
2022/07/24 04:34:00;;;;;;;5.80;3.58;;;;;;;19.86;65.79;99919.78;4987457;28;20046;-44
2022/07/24 04:36:27;;;;;;;4.50;3.20;;;;;;;19.87;65.44;99921.47;4988280;28;20105;-46
2022/07/24 04:38:53;;;;;;;4.80;4.22;;;;;;;19.85;66.11;99926.81;4994614;28;20065;-47
2022/07/24 04:41:20;;;;;;;5.68;2.95;;;;;;;19.88;65.51;99925.81;4984687;28;20045;-50
2022/07/24 04:43:46;;;;;;;5.25;3.40;;;;;;;19.88;65.71;99925.81;4994129;28;20104;-49
2022/07/24 04:46:13;;;;;;;5.15;2.70;;;;;;;19.85;65.77;99918.91;4981839;28;20050;-46
2022/07/24 04:48:40;;;;;;;4.22;2.72;;;;;;;19.81;66.22;99914.72;4981960;28;20050;-48
2022/07/24 04:51:07;;;;;;;5.50;2.67;;;;;;;19.86;65.80;99927.66;4988395;28;20049;-44
2022/07/24 04:53:34;;;;;;;5.25;3.92;;;;;;;19.86;66.20;99927.66;4995530;28;20054;-51
2022/07/24 04:56:00;;;;;;;4.88;3.03;;;;;;;19.87;65.88;99918.84;4991353;28;20047;-45
2022/07/24 04:58:27;;;;;;;4.60;3.22;;;;;;;19.85;66.34;99925.94;4987365;28;20050;-46
2022/07/24 05:00:54;;;;;;;6.82;3.60;;;;;;;19.85;66.34;99921.56;4977449;28;20866;-48
2022/07/24 05:03:21;;;;;;;6.82;4.20;;;;;;;19.83;66.44;99912.91;4984564;28;20075;-48
2022/07/24 05:05:47;;;;;;;4.95;2.20;;;;;;;19.79;66.03;99916.53;4991004;28;20409;-46
2022/07/24 05:08:14;;;;;;;9.30;4.55;;;;;;;19.81;66.45;99913.84;4994701;28;20096;-51
2022/07/24 05:10:41;;;;;;;7.97;3.25;;;;;;;19.81;66.43;99909.47;4992282;28;20093;-46
2022/07/24 05:13:07;;;;;;;5.95;4.03;;;;;;;19.82;66.34;99915.59;4985389;28;20046;-47
2022/07/24 05:15:34;;;;;;;5.60;2.38;;;;;;;19.83;66.76;99918.16;4978125;28;20618;-51
2022/07/24 05:18:01;;;;;;;6.35;3.28;;;;;;;19.82;66.74;99920.84;4996665;28;20045;-47
2022/07/24 05:20:28;;;;;;;6.13;3.90;;;;;;;19.83;66.95;99912.03;4983848;28;20474;-48
2022/07/24 05:22:54;;;;;;;5.03;3.33;;;;;;;19.86;66.32;99917.16;4991365;28;20050;-48
2022/07/24 05:25:21;;;;;;;6.63;3.70;;;;;;;19.88;66.42;99920.56;4987357;28;20046;-52
2022/07/24 05:27:48;;;;;;;7.38;3.97;;;;;;;19.87;66.53;99918.84;4989736;28;20046;-47
2022/07/24 05:30:15;;;;;;;6.50;4.28;;;;;;;19.88;66.38;99918.78;4990311;28;20046;-46
2022/07/24 05:32:41;;;;;;;5.95;3.60;;;;;;;19.89;66.82;99911.75;4998795;28;20053;-45
2022/07/24 05:35:08;;;;;;;6.78;3.92;;;;;;;19.90;66.88;99913.47;4986676;28;20046;-47
2022/07/24 05:37:36;;;;;;;4.93;2.67;;;;;;;19.89;67.26;99922.25;4985264;28;20072;-46
2022/07/24 05:40:03;;;;;;;7.45;3.00;;;;;;;19.93;67.34;99912.47;4984485;28;20058;-46
2022/07/24 05:42:32;;;;;;;5.72;3.10;;;;;;;19.97;67.05;99917.53;4981995;28;20057;-50
2022/07/24 05:44:58;;;;;;;6.93;3.80;;;;;;;19.99;67.08;99913.09;4980332;28;20498;-46
2022/07/24 05:47:25;;;;;;;3.97;2.38;;;;;;;20.03;66.87;99919.91;4979454;28;20058;-46
2022/07/24 05:49:52;;;;;;;4.65;3.08;;;;;;;20.10;67.04;99919.66;4986665;28;20522;-47
2022/07/24 05:52:18;;;;;;;6.65;3.63;;;;;;;20.13;66.52;99922.16;4989413;28;20056;-47
2022/07/24 05:54:45;;;;;;;5.22;2.85;;;;;;;20.14;66.80;99913.31;4985863;28;20813;-46
2022/07/24 05:57:12;;;;;;;6.53;3.35;;;;;;;20.17;66.53;99916.66;4974512;28;20050;-47
2022/07/24 05:59:38;;;;;;;3.97;2.55;;;;;;;20.20;66.51;99926.22;4990609;28;20051;-45
2022/07/24 06:02:05;;;;;;;7.15;3.17;;;;;;;20.23;66.68;99920.78;4979781;28;20043;-46
2022/07/24 06:04:32;;;;;;;3.60;2.30;;;;;;;20.25;66.45;99908.44;4984030;28;20129;-46
2022/07/24 06:06:59;;;;;;;3.83;1.67;;;;;;;20.23;66.93;99899.75;4980552;28;20698;-47
2022/07/24 06:09:26;;;;;;;5.18;2.95;;;;;;;20.20;66.93;99910.44;4981063;28;20089;-52
2022/07/24 06:11:52;;;;;;;5.97;2.60;;;;;;;20.21;66.99;99901.63;4983092;28;20038;-46
2022/07/24 06:14:19;;;;;;;5.10;3.10;;;;;;;20.24;66.93;99906.75;4982173;28;20058;-49
2022/07/24 06:16:46;;;;;;;6.35;2.75;;;;;;;20.27;66.71;99896.06;4981869;28;20088;-47
2022/07/24 06:19:12;;;;;;;5.05;2.85;;;;;;;20.32;66.68;99898.47;4980820;28;20058;-50
2022/07/24 06:21:39;;;;;;;5.28;2.50;;;;;;;20.39;66.92;99899.06;4976642;28;20053;-46
2022/07/24 06:24:06;;;;;;;4.90;3.63;;;;;;;20.43;66.46;99897.97;4981857;28;20050;-48
2022/07/24 06:26:33;;;;;;;3.80;2.15;;;;;;;20.50;66.56;99895.94;4982067;28;20050;-46
2022/07/24 06:29:20;;;;;;;4.78;2.95;;;;;;;20.54;66.55;99897.50;4983934;28;20085;-47
2022/07/24 06:31:46;;;;;;;4.25;2.28;;;;;;;20.57;66.16;99899.13;4983546;28;20116;-45
2022/07/24 06:34:13;;;;;;;5.10;3.03;;;;;;;20.57;66.47;99902.63;4979077;28;20057;-47
2022/07/24 06:36:39;;;;;;;3.75;2.58;;;;;;;20.60;66.75;99901.63;4981527;28;20039;-48
2022/07/24 06:39:06;;;;;;;4.07;2.78;;;;;;;20.63;66.57;99896.19;4981143;28;20050;-48
2022/07/24 06:41:33;;;;;;;5.32;3.08;;;;;;;20.67;66.25;99895.16;4977524;28;20046;-48
2022/07/24 06:44:00;;;;;;;4.82;3.40;;;;;;;20.72;66.34;99901.03;4980759;28;20054;-47
2022/07/24 06:46:26;;;;;;;1.90;1.67;;;;;;;20.72;66.33;99901.03;4980931;28;20041;-44
2022/07/24 06:48:53;;;;;;;4.32;1.60;;;;;;;20.77;66.21;99904.28;4977036;28;20442;-45
2022/07/24 06:51:20;;;;;;;3.70;2.28;;;;;;;20.87;65.96;99903.88;4979092;28;20108;-45
2022/07/24 06:53:47;;;;;;;4.22;2.10;;;;;;;20.89;65.86;99909.91;4981758;28;20577;-46
2022/07/24 06:56:13;;;;;;;5.28;1.30;;;;;;;20.97;66.09;99907.75;4982527;28;20445;-49
2022/07/24 06:58:40;;;;;;;4.05;2.97;;;;;;;21.02;65.68;99907.56;4984667;28;21153;-49
2022/07/24 07:01:07;;;;;;;4.75;2.85;;;;;;;21.05;65.94;99902.97;4993377;28;20984;-46
2022/07/24 07:03:33;;;;;;;4.88;2.22;;;;;;;21.12;65.48;99907.94;4991079;28;20081;-47
2022/07/24 07:06:00;;;;;;;3.70;2.17;;;;;;;21.17;66.14;99901.53;4981026;28;20074;-49
2022/07/24 07:08:27;;;;;;;2.58;2.33;;;;;;;21.23;65.95;99894.25;4991086;28;20063;-50
2022/07/24 07:10:53;;;;;;;4.82;2.22;;;;;;;21.31;65.78;99892.09;4984417;28;20046;-47
2022/07/24 07:13:20;;;;;;;2.80;2.03;;;;;;;21.38;65.38;99905.81;4991362;28;20066;-46
2022/07/24 07:15:47;;;;;;;3.65;1.98;;;;;;;21.44;65.45;99887.91;4987920;28;20042;-46
2022/07/24 07:18:14;;;;;;;3.60;2.58;;;;;;;21.52;64.88;99887.50;4986178;28;20129;-47
2022/07/24 07:20:41;;;;;;;3.25;2.50;;;;;;;21.60;65.19;99896.78;4987721;28;20096;-46
2022/07/24 07:23:08;;;;;;;2.83;2.25;;;;;;;21.66;64.63;99885.94;4983310;28;20102;-46
2022/07/24 07:25:35;;;;;;;2.38;2.15;;;;;;;21.66;64.91;99875.41;4988538;28;20050;-48
2022/07/24 07:28:01;;;;;;;3.83;2.38;;;;;;;21.63;64.95;99891.38;4987788;28;20046;-46
2022/07/24 07:30:28;;;;;;;3.55;2.03;;;;;;;21.61;64.51;99887.97;4993488;28;20841;-49
2022/07/24 07:32:55;;;;;;;2.92;2.35;;;;;;;21.64;64.88;99887.78;4999135;28;20710;-48
2022/07/24 07:35:22;;;;;;;3.97;2.33;;;;;;;21.66;65.12;99886.81;4999232;28;20054;-51
2022/07/24 07:37:53;;;;;;;4.93;0.88;;;;;;;21.68;64.96;99884.94;4993980;28;20441;-46
2022/07/24 07:40:20;;;;;;;2.97;1.88;;;;;;;21.71;64.62;99881.28;4996435;28;20054;-48
2022/07/24 07:42:46;;;;;;;2.70;2.47;;;;;;;21.73;65.03;99882.06;4996344;28;20061;-48
2022/07/24 07:45:13;;;;;;;3.33;2.50;;;;;;;21.74;65.14;99875.88;4991051;28;20116;-47
2022/07/24 07:47:40;;;;;;;3.08;2.45;;;;;;;21.77;65.17;99867.81;4996289;28;20132;-47
2022/07/24 07:50:07;;;;;;;3.00;2.50;;;;;;;21.77;64.76;99878.38;4993501;28;20051;-49
2022/07/24 07:52:34;;;;;;;3.70;2.60;;;;;;;21.79;64.06;99865.94;4999320;28;20100;-52
2022/07/24 07:55:00;;;;;;;5.72;2.33;;;;;;;21.82;64.08;99873.69;4993418;28;20058;-52
2022/07/24 07:57:27;;;;;;;4.53;2.33;;;;;;;21.83;64.98;99878.06;5001756;28;20054;-49
2022/07/24 08:00:14;;;;;;;3.13;1.60;;;;;;;21.87;64.64;99877.88;4994780;28;20503;-49
2022/07/24 08:02:41;;;;;;;2.30;1.95;;;;;;;21.94;64.56;99884.53;4996507;28;20046;-46
2022/07/24 08:05:08;;;;;;;2.53;1.95;;;;;;;22.02;64.15;99882.31;4989725;28;20483;-48
2022/07/24 08:07:36;;;;;;;2.40;2.10;;;;;;;22.08;63.84;99876.72;4998786;28;20051;-47
2022/07/24 08:10:04;;;;;;;4.00;1.92;;;;;;;22.08;64.18;99876.72;4995663;28;20490;-52
2022/07/24 08:12:36;;;;;;;3.83;2.85;;;;;;;22.08;63.57;99882.00;4990204;28;20119;-47
2022/07/24 08:15:05;;;;;;;3.47;1.90;;;;;;;22.04;64.13;99885.75;4994241;28;20085;-47
2022/07/24 08:17:32;;;;;;;3.63;2.67;;;;;;;22.04;63.91;99885.75;4997916;28;20045;-50
2022/07/24 08:19:59;;;;;;;4.03;2.25;;;;;;;22.01;63.69;99896.44;4996022;28;20482;-51
2022/07/24 08:22:26;;;;;;;3.58;2.28;;;;;;;22.01;63.91;99893.81;4993292;28;20054;-48
2022/07/24 08:24:52;;;;;;;3.50;2.90;;;;;;;21.99;63.81;99893.06;4996388;28;20050;-44
2022/07/24 08:27:19;;;;;;;4.53;2.90;;;;;;;22.02;64.11;99898.16;5000591;28;20061;-48
2022/07/24 08:29:45;;;;;;;4.50;2.08;;;;;;;22.05;63.79;99895.34;5002913;28;20093;-46
2022/07/24 08:32:12;;;;;;;3.65;2.53;;;;;;;22.08;63.70;99897.84;5008521;28;20053;-45
2022/07/24 08:34:39;;;;;;;3.70;2.08;;;;;;;22.15;63.79;99892.25;4999838;28;20046;-48
2022/07/24 08:37:06;;;;;;;3.95;2.55;;;;;;;22.30;63.66;99888.78;4993157;28;20100;-48
2022/07/24 08:39:32;;;;;;;2.70;1.98;;;;;;;22.45;63.60;99899.38;4988587;28;20049;-47
2022/07/24 08:41:59;;;;;;;3.75;1.92;;;;;;;22.49;62.91;99893.00;4993390;28;20097;-47
2022/07/24 08:44:26;;;;;;;1.88;1.10;;;;;;;22.47;62.95;99897.53;5004438;28;20426;-49
2022/07/24 08:46:54;;;;;;;3.25;1.25;;;;;;;22.48;63.22;99901.88;4993185;28;20379;-45
2022/07/24 08:49:21;;;;;;;4.57;2.05;;;;;;;22.46;62.96;99896.66;4998193;28;20064;-50
2022/07/24 08:51:50;;;;;;;2.55;1.10;;;;;;;22.43;63.54;99893.38;4992109;28;20402;-47
2022/07/24 08:54:16;;;;;;;3.10;2.80;;;;;;;22.44;63.62;99887.16;4992526;28;20046;-46
2022/07/24 08:56:43;;;;;;;3.65;2.72;;;;;;;22.49;62.72;99890.38;5002723;28;20069;-46
2022/07/24 08:59:19;;;;;;;2.42;2.22;;;;;;;22.51;62.74;99899.06;5008435;28;20046;-46
2022/07/24 09:01:52;;;;;;;3.53;2.47;;;;;;;22.59;63.20;99890.75;4992076;28;20057;-46
2022/07/24 09:04:39;;;;;;;3.50;2.83;;;;;;;22.59;62.82;99888.09;4993693;28;20137;-47
2022/07/24 09:07:09;;;;;;;5.13;2.38;;;;;;;22.66;62.59;99880.72;5000997;28;20482;-50
2022/07/24 09:09:37;;;;;;;5.40;2.85;;;;;;;22.73;62.93;99887.34;4996797;28;20046;-48
2022/07/24 09:12:10;;;;;;;2.20;2.00;;;;;;;22.88;62.87;99887.41;4999036;28;20173;-48
2022/07/24 09:14:38;;;;;;;2.55;2.25;;;;;;;23.01;62.04;99885.78;5002353;28;20050;-52
2022/07/24 09:17:08;;;;;;;4.70;1.98;;;;;;;23.09;62.13;99882.66;5002191;28;20119;-48
2022/07/24 09:19:51;;;;;;;;;;;;;;;23.07;62.33;99880.13;5003679;28;20046;-46
2022/07/24 09:28:03;;;;;;;1.80;1.40;;;;;;;23.29;61.20;99886.78;5029207;27;20410;-45
2022/07/24 09:35:51;;;;;;;2.53;1.67;;;;;;;23.23;61.00;99887.16;5050863;27;20382;-50
2022/07/24 09:38:24;;;;;;;6.25;1.73;;;;;;;23.23;61.20;99893.28;5002545;28;20512;-45
2022/07/24 09:40:54;;;;;;;5.13;2.50;;;;;;;23.24;60.88;99894.16;5004289;28;20061;-47
2022/07/24 09:43:27;;;;;;;4.07;2.05;;;;;;;23.22;60.96;99896.88;5003859;28;20726;-45
2022/07/24 09:48:41;;;;;;;4.22;1.80;;;;;;;23.51;60.96;99890.84;5070327;27;20395;-47
2022/07/24 09:51:16;;;;;;;4.72;1.30;;;;;;;23.38;61.66;99887.22;5057538;28;20055;-47
2022/07/24 09:53:46;;;;;;;2.15;0.95;;;;;;;23.42;61.35;99883.44;5059427;28;20053;-47
2022/07/24 09:58:52;;;;;;;1.90;1.00;;;;;;;23.57;60.91;99885.19;5057877;27;20391;-45
2022/07/24 10:01:21;;;;;;;6.32;1.40;;;;;;;23.64;60.99;99879.53;5001588;28;20581;-49
2022/07/24 10:03:50;;;;;;;2.65;1.02;;;;;;;23.69;60.63;99883.59;5028313;28;20050;-46
2022/07/24 10:06:21;;;;;;;3.67;2.03;;;;;;;23.71;60.63;99878.22;5005511;28;20458;-46
2022/07/24 10:08:50;;;;;;;1.35;0.90;;;;;;;23.70;60.59;99873.84;4998837;28;20596;-47
2022/07/24 10:11:18;;;;;;;;;;;;;;;23.56;60.06;99864.97;4999937;28;20045;-54
2022/07/24 10:13:46;;;;;;;3.17;1.10;;;;;;;23.73;60.39;99871.03;4999421;28;20350;-50
2022/07/24 10:18:52;;;;;;;3.10;1.20;;;;;;;23.96;60.10;99871.41;5028953;27;20399;-49
2022/07/24 10:21:26;;;;;;;3.25;1.10;;;;;;;24.02;60.05;99871.03;5001077;28;20105;-50
2022/07/24 10:26:37;;;;;;;3.45;2.00;;;;;;;24.04;59.71;99868.31;5050323;28;20385;-48
2022/07/24 10:29:09;;;;;;;5.00;2.03;;;;;;;24.10;59.72;99858.19;5011336;28;20042;-47
2022/07/24 10:31:41;;;;;;;4.03;2.50;;;;;;;24.32;60.34;99870.06;5015513;28;20053;-45
2022/07/24 10:42:19;;;;;;;1.75;1.00;;;;;;;24.98;57.91;99857.97;5019138;27;20395;-45
2022/07/24 10:45:29;;;;;;;2.92;1.40;;;;;;;25.07;57.64;99852.06;4994123;28;20533;-48
2022/07/24 10:53:29;;;;;;;3.10;2.45;;;;;;;25.37;57.03;99840.31;5051345;28;20749;-45
2022/07/24 10:56:18;;;;;;;2.05;1.05;;;;;;;25.56;56.63;99836.41;5018073;28;20889;-50
2022/07/24 11:12:25;;;;;;;2.72;0.90;;;;;;;26.27;55.06;99835.06;5026360;28;20411;-48
2022/07/24 11:14:52;;;;;;;1.88;0.95;;;;;;;26.28;54.50;99826.16;4999971;28;20038;-49
2022/07/24 11:17:40;;;;;;;1.98;1.00;;;;;;;26.27;54.62;99824.44;4997865;28;20086;-48
2022/07/24 11:20:10;;;;;;;1.40;0.93;;;;;;;26.33;54.24;99821.34;4986236;28;20050;-50
2022/07/24 11:22:47;;;;;;;2.92;0.50;;;;;;;26.39;54.75;99814.75;4997764;28;20069;-50
2022/07/24 11:25:18;;;;;;;3.40;0.75;;;;;;;26.53;54.52;99813.72;5001081;28;20064;-48
2022/07/24 11:27:56;;;;;;;2.47;0.80;;;;;;;26.64;53.47;99819.09;5000836;28;20276;-49
2022/07/24 11:30:25;;;;;;;3.28;0.82;;;;;;;26.87;54.46;99810.34;4993970;28;20046;-52
2022/07/24 11:32:52;;;;;;;1.50;0.60;;;;;;;27.07;53.03;99803.56;4990114;28;20086;-51
2022/07/24 11:35:36;;;;;;;5.00;1.02;;;;;;;27.31;53.28;99808.81;4997635;28;20073;-46
2022/07/24 11:38:06;;;;;;;2.25;0.50;;;;;;;27.46;53.13;99790.81;4991677;28;20050;-46
2022/07/24 11:40:35;;;;;;;3.78;0.60;;;;;;;27.60;52.40;99786.22;4991483;28;20050;-47
2022/07/24 11:43:05;;;;;;;4.03;1.23;;;;;;;27.83;52.45;99784.41;4998419;28;20050;-48
2022/07/24 11:45:37;;;;;;;1.10;0.47;;;;;;;28.08;52.45;99779.78;4994689;28;20073;-48
2022/07/24 11:48:04;;;;;;;1.63;0.65;;;;;;;28.22;51.36;99776.00;4993608;28;20050;-49
2022/07/24 11:50:32;;;;;;;0.98;0.70;;;;;;;28.25;50.70;99763.38;4995939;28;20097;-47
2022/07/24 11:52:59;;;;;;;5.05;1.17;;;;;;;28.22;50.70;99770.66;5000374;28;20060;-47
2022/07/24 11:55:26;;;;;;;4.88;2.38;;;;;;;28.28;51.05;99768.50;4992697;28;20414;-51
2022/07/24 11:57:55;;;;;;;3.33;0.70;;;;;;;28.38;49.81;99769.44;4995715;28;20114;-46
2022/07/24 12:00:42;;;;;;;2.97;0.70;;;;;;;28.51;49.60;99773.75;4993337;28;20126;-51
2022/07/24 12:03:09;;;;;;;1.10;0.60;;;;;;;28.58;49.03;99774.91;4995619;28;20108;-47
2022/07/24 12:05:38;;;;;;;1.70;0.63;;;;;;;28.65;49.37;99765.44;4998253;28;20474;-50
2022/07/24 12:08:17;;;;;;;1.77;0.60;;;;;;;28.74;48.76;99759.31;4994643;28;20054;-49
2022/07/24 12:10:48;;;;;;;2.13;0.47;;;;;;;28.84;48.28;99761.22;4992237;28;20041;-47
2022/07/24 12:13:16;;;;;;;4.00;0.75;;;;;;;28.90;48.79;99755.34;5012997;28;20092;-46
2022/07/24 12:15:44;;;;;;;5.40;0.90;;;;;;;28.92;47.71;99749.94;5014665;28;20116;-52
2022/07/24 12:18:11;;;;;;;2.67;0.50;;;;;;;28.97;48.57;99743.25;5018988;28;20045;-50
2022/07/24 12:20:40;;;;;;;4.00;0.73;;;;;;;29.03;47.49;99735.69;5014883;28;20050;-48
2022/07/24 12:23:10;;;;;;;3.45;1.33;;;;;;;29.10;47.70;99734.19;5002297;28;20053;-47
2022/07/24 12:25:37;;;;;;;2.28;0.88;;;;;;;29.12;47.76;99734.91;5001915;28;20054;-49